createdAt,value
2022-10-13T00:01:32.375Z,18.65
2022-10-13T00:04:34.295Z,17.65
2022-10-13T00:07:36.234Z,17.35
2022-10-13T00:10:39.053Z,17.67
2022-10-13T00:13:41.994Z,18.08
2022-10-13T00:16:43.944Z,20.40
2022-10-13T00:19:45.897Z,21.83
2022-10-13T00:22:48.168Z,21.00
2022-10-13T00:25:50.705Z,22.05
2022-10-13T00:28:53.294Z,20.80
2022-10-13T00:31:55.400Z,22.30
2022-10-13T00:34:57.875Z,23.20
2022-10-13T00:37:59.848Z,22.80
2022-10-13T00:41:06.448Z,23.52
2022-10-13T00:44:26.965Z,22.90
2022-10-13T00:47:31.047Z,21.67
2022-10-13T00:50:35.541Z,19.45
2022-10-13T00:53:38.548Z,20.42
2022-10-13T00:56:41.858Z,20.00
2022-10-13T00:59:43.817Z,21.03
2022-10-13T01:02:45.740Z,20.92
2022-10-13T01:05:48.567Z,21.15
2022-10-13T01:08:50.769Z,21.92
2022-10-13T01:11:52.768Z,20.70
2022-10-13T01:15:10.594Z,22.10
2022-10-13T01:18:21.547Z,21.00
2022-10-13T01:21:33.229Z,19.87
2022-10-13T01:24:41.814Z,20.35
2022-10-13T01:28:02.354Z,19.58
2022-10-13T01:31:18.296Z,20.37
2022-10-13T01:34:32.495Z,20.77
2022-10-13T01:37:37.326Z,19.50
2022-10-13T01:40:39.234Z,21.23
2022-10-13T01:43:45.492Z,20.55
2022-10-13T01:46:48.656Z,20.20
2022-10-13T01:49:50.927Z,20.33
2022-10-13T01:52:53.231Z,19.13
2022-10-13T01:55:59.847Z,19.58
2022-10-13T01:59:03.641Z,19.40
2022-10-13T02:02:14.548Z,19.10
2022-10-13T02:05:23.271Z,19.77
2022-10-13T02:08:28.204Z,22.38
2022-10-13T02:11:30.165Z,20.52
2022-10-13T02:14:33.118Z,18.97
2022-10-13T02:17:35.376Z,18.65
2022-10-13T02:20:37.590Z,17.42
2022-10-13T02:23:39.507Z,18.50
2022-10-13T02:26:43.685Z,18.30
2022-10-13T02:29:50.238Z,18.27
2022-10-13T02:32:54.656Z,19.90
2022-10-13T02:35:56.611Z,18.73
2022-10-13T02:38:58.988Z,18.23
2022-10-13T02:42:00.924Z,18.73
2022-10-13T02:45:02.941Z,17.47
2022-10-13T02:48:05.247Z,19.45
2022-10-13T02:51:07.213Z,18.65
2022-10-13T02:54:09.147Z,18.00
2022-10-13T02:57:11.108Z,17.45
2022-10-13T03:00:13.380Z,17.17
2022-10-13T03:03:15.338Z,17.23
2022-10-13T03:06:18.286Z,18.07
2022-10-13T03:09:20.216Z,19.40
2022-10-13T03:12:22.572Z,18.00
2022-10-13T03:15:25.208Z,18.27
2022-10-13T03:18:30.179Z,17.10
2022-10-13T03:21:32.137Z,17.70
2022-10-13T03:24:34.073Z,16.92
2022-10-13T03:27:36.146Z,17.10
2022-10-13T03:30:38.073Z,17.15
2022-10-13T03:33:40.172Z,16.45
2022-10-13T03:36:42.175Z,18.07
2022-10-13T03:39:44.178Z,17.48
2022-10-13T03:42:47.396Z,16.88
2022-10-13T03:45:58.797Z,15.37
2022-10-13T03:49:00.758Z,16.42
2022-10-13T03:52:05.635Z,16.40
2022-10-13T03:55:07.711Z,16.48
2022-10-13T03:58:09.617Z,15.90
2022-10-13T04:01:12.915Z,16.20
2022-10-13T04:04:17.423Z,14.77
2022-10-13T04:07:22.318Z,14.33
2022-10-13T04:10:24.449Z,14.77
2022-10-13T04:13:26.411Z,13.90
2022-10-13T04:16:29.478Z,14.90
2022-10-13T04:19:31.829Z,14.93
2022-10-13T04:22:40.474Z,15.32
2022-10-13T04:25:42.429Z,14.50
2022-10-13T04:28:44.932Z,16.75
2022-10-13T04:31:46.924Z,16.05
2022-10-13T04:34:49.032Z,17.08
2022-10-13T04:37:50.993Z,16.57
2022-10-13T04:40:52.932Z,17.65
2022-10-13T04:43:55.161Z,14.95
2022-10-13T04:46:57.600Z,17.13
2022-10-13T04:49:59.557Z,17.02
2022-10-13T04:53:01.466Z,17.60
2022-10-13T04:56:05.086Z,17.98
2022-10-13T04:59:07.149Z,16.65
2022-10-13T05:02:10.614Z,18.13
2022-10-13T05:05:12.671Z,17.38
2022-10-13T05:08:14.628Z,15.77
2022-10-13T05:11:17.207Z,17.30
2022-10-13T05:14:22.030Z,15.88
2022-10-13T05:17:23.965Z,15.43
2022-10-13T05:20:26.400Z,14.57
2022-10-13T05:23:28.402Z,14.30
2022-10-13T05:26:32.356Z,15.38
2022-10-13T05:29:34.538Z,14.73
2022-10-13T05:32:36.569Z,14.13
2022-10-13T05:35:38.623Z,13.63
2022-10-13T05:38:40.793Z,13.03
2022-10-13T05:41:42.876Z,12.40
2022-10-13T05:44:51.677Z,12.70
2022-10-13T05:47:53.839Z,12.97
2022-10-13T05:50:57.487Z,12.18
2022-10-13T05:54:09.045Z,12.18
2022-10-13T05:57:15.872Z,11.10
2022-10-13T06:00:21.032Z,12.30
2022-10-13T06:03:28.888Z,12.60
2022-10-13T06:06:32.755Z,11.63
2022-10-13T06:09:35.772Z,10.97
2022-10-13T06:12:37.985Z,12.68
2022-10-13T06:15:40.110Z,11.38
2022-10-13T06:18:42.165Z,10.07
2022-10-13T06:21:44.163Z,9.07
2022-10-13T06:24:46.383Z,9.55
2022-10-13T06:27:48.463Z,8.90
2022-10-13T06:30:56.695Z,11.10
2022-10-13T06:33:59.160Z,9.48
2022-10-13T06:37:01.419Z,9.15
2022-10-13T06:40:03.565Z,8.38
2022-10-13T06:43:05.886Z,10.20
2022-10-13T06:46:16.159Z,9.88
2022-10-13T06:49:18.236Z,9.95
2022-10-13T06:52:20.912Z,10.38
2022-10-13T06:55:23.990Z,11.30
2022-10-13T06:58:26.805Z,10.07
2022-10-13T07:01:29.037Z,11.88
2022-10-13T07:04:35.686Z,11.13
2022-10-13T07:07:37.817Z,10.93
2022-10-13T07:10:40.914Z,11.40
2022-10-13T07:13:46.398Z,10.13
2022-10-13T07:16:51.218Z,9.65
2022-10-13T07:19:57.738Z,9.10
2022-10-13T07:23:00.200Z,9.33
2022-10-13T07:26:02.312Z,8.57
2022-10-13T07:29:04.491Z,10.23
2022-10-13T07:32:06.851Z,8.88
2022-10-13T07:35:09.923Z,8.50
2022-10-13T07:38:12.379Z,8.33
2022-10-13T07:41:24.487Z,7.07
2022-10-13T07:44:31.097Z,7.25
2022-10-13T07:47:33.175Z,7.85
2022-10-13T07:50:36.434Z,8.15
2022-10-13T07:53:38.973Z,6.83
2022-10-13T07:56:43.952Z,6.67
2022-10-13T07:59:46.768Z,8.10
2022-10-13T08:02:52.082Z,6.93
2022-10-13T08:05:54.192Z,9.38
2022-10-13T08:08:57.759Z,7.07
2022-10-13T08:12:00.895Z,7.57
2022-10-13T08:15:06.316Z,6.03
2022-10-13T08:18:09.781Z,6.20
2022-10-13T08:21:45.949Z,6.00
2022-10-13T08:24:39.600Z,6.13
2022-10-13T08:27:51.152Z,7.13
2022-10-13T08:30:54.117Z,5.22
2022-10-13T08:33:56.655Z,5.57
2022-10-13T08:37:00.368Z,5.82
2022-10-13T08:40:02.446Z,7.77
2022-10-13T08:43:16.133Z,5.77
2022-10-13T08:46:40.683Z,5.65
2022-10-13T08:49:43.610Z,6.35
2022-10-13T08:52:50.089Z,6.05
2022-10-13T08:55:55.568Z,5.50
2022-10-13T08:58:58.052Z,5.30
2022-10-13T09:02:03.632Z,5.63
2022-10-13T09:05:11.668Z,5.43
2022-10-13T09:08:20.116Z,6.00
2022-10-13T09:11:22.794Z,5.90
2022-10-13T09:14:27.837Z,4.80
2022-10-13T09:17:30.148Z,5.75
2022-10-13T09:20:42.020Z,6.05
2022-10-13T09:23:44.106Z,5.80
2022-10-13T09:26:47.074Z,6.20
2022-10-13T09:29:49.119Z,5.20
2022-10-13T09:32:51.472Z,5.38
2022-10-13T09:35:56.720Z,5.00
2022-10-13T09:39:07.004Z,5.70
2022-10-13T09:42:23.535Z,5.90
2022-10-13T09:45:26.624Z,5.23
2022-10-13T09:48:30.934Z,4.50
2022-10-13T09:51:35.409Z,5.65
2022-10-13T09:54:51.245Z,5.65
2022-10-13T09:57:55.633Z,5.70
2022-10-13T10:00:57.892Z,7.00
2022-10-13T10:04:09.970Z,5.57
2022-10-13T10:07:21.876Z,5.80
2022-10-13T10:10:37.338Z,5.93
2022-10-13T10:13:42.170Z,6.00
2022-10-13T10:16:46.583Z,5.80
2022-10-13T10:20:07.342Z,5.43
2022-10-13T10:23:17.581Z,6.22
2022-10-13T10:26:24.941Z,4.90
2022-10-13T10:29:49.892Z,6.50
2022-10-13T10:32:58.332Z,5.90
2022-10-13T10:36:21.997Z,7.30
2022-10-13T10:39:31.380Z,5.78
2022-10-13T10:42:51.952Z,6.30
2022-10-13T10:45:56.816Z,6.27
2022-10-13T10:49:01.390Z,6.40
2022-10-13T10:52:06.961Z,6.88
2022-10-13T10:55:15.439Z,8.02
2022-10-13T10:58:35.918Z,7.30
2022-10-13T11:01:51.866Z,6.87
2022-10-13T11:04:54.377Z,6.33
2022-10-13T11:07:57.898Z,7.20
2022-10-13T11:11:20.926Z,10.85
2022-10-13T11:14:27.069Z,9.10
2022-10-13T11:17:29.044Z,8.63
2022-10-13T11:20:34.065Z,9.50
2022-10-13T11:23:43.796Z,8.52
2022-10-13T11:26:45.778Z,8.90
2022-10-13T11:29:55.071Z,8.13
2022-10-13T11:32:57.180Z,8.43
2022-10-13T11:36:19.039Z,10.37
2022-10-13T11:39:28.043Z,9.88
2022-10-13T11:42:41.277Z,9.32
2022-10-13T11:46:01.971Z,9.57
2022-10-13T11:49:10.653Z,9.47
2022-10-13T11:52:21.847Z,8.77
2022-10-13T11:55:30.254Z,8.98
2022-10-13T11:58:33.148Z,8.75
2022-10-13T12:01:35.255Z,9.85
2022-10-13T12:04:41.575Z,8.53
2022-10-13T12:07:47.182Z,7.93
2022-10-13T12:10:52.765Z,8.77
2022-10-13T12:13:55.163Z,7.97
2022-10-13T12:16:57.819Z,7.93
2022-10-13T12:20:00.967Z,8.37
2022-10-13T12:23:03.746Z,8.80
2022-10-13T12:26:06.029Z,8.13
2022-10-13T12:29:12.040Z,6.70
2022-10-13T12:32:21.553Z,6.78
2022-10-13T12:35:25.835Z,7.40
2022-10-13T12:38:27.825Z,9.10
2022-10-13T12:41:34.846Z,7.30
2022-10-13T12:44:36.968Z,7.45
2022-10-13T12:47:44.780Z,7.78
2022-10-13T12:50:46.775Z,6.73
2022-10-13T12:53:48.747Z,7.47
2022-10-13T12:56:55.299Z,6.53
2022-10-13T12:59:59.218Z,6.40
2022-10-13T13:03:06.161Z,6.43
2022-10-13T13:06:13.165Z,6.93
2022-10-13T13:09:19.731Z,6.23
2022-10-13T13:12:23.274Z,6.20
2022-10-13T13:15:25.329Z,6.03
2022-10-13T13:18:27.242Z,6.65
2022-10-13T13:21:29.203Z,7.73
2022-10-13T13:24:39.769Z,6.73
2022-10-13T13:27:44.640Z,7.88
2022-10-13T13:30:51.324Z,7.43
2022-10-13T13:33:53.315Z,7.35
2022-10-13T13:36:55.237Z,6.93
2022-10-13T13:39:57.679Z,6.60
2022-10-13T13:42:59.743Z,8.07
2022-10-13T13:46:07.308Z,6.80
2022-10-13T13:49:10.579Z,6.47
2022-10-13T13:52:12.544Z,6.43
2022-10-13T13:55:14.622Z,7.20
2022-10-13T13:58:16.675Z,7.22
2022-10-13T14:01:18.769Z,6.43
2022-10-13T14:04:20.846Z,7.00
2022-10-13T14:07:23.287Z,6.63
2022-10-13T14:10:26.624Z,7.63
2022-10-13T14:13:28.588Z,7.00
2022-10-13T14:16:30.525Z,6.68
2022-10-13T14:19:33.176Z,6.80
2022-10-13T14:22:37.246Z,6.93
2022-10-13T14:25:39.211Z,7.53
2022-10-13T14:28:42.386Z,5.90
2022-10-13T14:31:44.463Z,7.93
2022-10-13T14:34:46.405Z,6.40
2022-10-13T14:37:48.419Z,7.07
2022-10-13T14:40:50.446Z,6.40
2022-10-13T14:43:55.603Z,7.63
2022-10-13T14:46:57.541Z,6.28
2022-10-13T14:50:01.966Z,16.15
2022-10-13T14:53:03.971Z,9.30
2022-10-13T14:56:19.297Z,7.27
2022-10-13T14:59:24.465Z,7.22
2022-10-13T15:02:26.465Z,7.28
2022-10-13T15:05:28.589Z,8.38
2022-10-13T15:08:30.605Z,7.90
2022-10-13T15:11:32.717Z,7.00
2022-10-13T15:14:34.726Z,7.40
2022-10-13T15:17:37.678Z,8.00
2022-10-13T15:20:39.664Z,8.35
2022-10-13T15:23:42.212Z,8.17
2022-10-13T15:26:44.328Z,9.23
2022-10-13T15:29:46.580Z,10.18
2022-10-13T15:32:50.436Z,10.15
2022-10-13T15:35:52.999Z,12.95
2022-10-13T15:38:55.041Z,11.03
2022-10-13T15:41:56.978Z,12.07
2022-10-13T15:45:14.273Z,11.85
2022-10-13T15:48:16.388Z,11.55
2022-10-13T15:51:19.636Z,11.80
2022-10-13T15:54:22.107Z,13.53
2022-10-13T15:57:24.090Z,13.43
2022-10-13T16:00:26.022Z,13.85
2022-10-13T16:03:29.868Z,14.52
2022-10-13T16:06:33.577Z,16.88
2022-10-13T16:09:35.598Z,17.10
2022-10-13T16:12:37.557Z,15.57
2022-10-13T16:15:39.509Z,16.50
2022-10-13T16:18:41.738Z,16.30
2022-10-13T16:21:43.883Z,16.85
2022-10-13T16:24:45.863Z,17.00
2022-10-13T16:27:47.834Z,16.93
2022-10-13T16:30:49.767Z,16.90
2022-10-13T16:33:51.690Z,17.60
2022-10-13T16:36:53.946Z,18.92
2022-10-13T16:39:55.907Z,17.03
2022-10-13T16:42:57.856Z,17.70
2022-10-13T16:46:01.156Z,18.95
2022-10-13T16:49:04.298Z,20.52
2022-10-13T16:52:06.280Z,20.35
2022-10-13T16:55:08.499Z,22.83
2022-10-13T16:58:10.759Z,23.90
2022-10-13T17:01:12.800Z,27.02
2022-10-13T17:04:17.315Z,25.75
2022-10-13T17:07:23.487Z,28.98
2022-10-13T17:10:25.596Z,27.63
2022-10-13T17:13:27.571Z,27.13
2022-10-13T17:16:30.145Z,26.60
2022-10-13T17:19:32.304Z,29.23
2022-10-13T17:22:34.247Z,26.63
2022-10-13T17:25:36.257Z,27.17
2022-10-13T17:28:41.978Z,31.47
2022-10-13T17:31:44.028Z,29.15
2022-10-13T17:34:46.081Z,21.95
2022-10-13T17:37:49.230Z,19.20
2022-10-13T17:40:57.311Z,19.47
2022-10-13T17:44:01.760Z,17.70
2022-10-13T17:47:03.789Z,18.73
2022-10-13T17:50:05.930Z,20.65
2022-10-13T17:53:07.849Z,20.45
2022-10-13T17:56:14.804Z,17.87
2022-10-13T17:59:17.619Z,15.13
2022-10-13T18:02:19.601Z,15.57
2022-10-13T18:05:21.547Z,15.00
2022-10-13T18:08:23.511Z,15.30
2022-10-13T18:11:25.484Z,14.67
2022-10-13T18:14:27.626Z,13.75
2022-10-13T18:17:29.576Z,15.18
2022-10-13T18:20:32.185Z,17.52
2022-10-13T18:23:35.900Z,19.67
2022-10-13T18:26:37.885Z,20.13
2022-10-13T18:29:39.821Z,19.23
2022-10-13T18:32:41.826Z,18.83
2022-10-13T18:35:45.259Z,19.05
2022-10-13T18:38:47.780Z,18.83
2022-10-13T18:41:50.238Z,18.53
2022-10-13T18:44:52.191Z,18.20
2022-10-13T18:47:54.137Z,21.20
2022-10-13T18:50:56.192Z,20.02
2022-10-13T18:54:00.429Z,22.93
2022-10-13T18:57:02.447Z,24.00
2022-10-13T19:00:06.759Z,21.48
2022-10-13T19:03:08.696Z,24.02
2022-10-13T19:06:11.857Z,25.15
2022-10-13T19:09:17.464Z,25.60
2022-10-13T19:12:19.522Z,26.50
2022-10-13T19:15:21.578Z,25.65
2022-10-13T19:18:25.094Z,24.70
2022-10-13T19:21:27.326Z,25.43
2022-10-13T19:24:29.339Z,26.10
2022-10-13T19:27:31.332Z,27.25
2022-10-13T19:30:33.374Z,25.95
2022-10-13T19:33:35.316Z,27.15
2022-10-13T19:36:39.263Z,27.03
2022-10-13T19:39:41.204Z,26.33
2022-10-13T19:42:43.117Z,28.52
2022-10-13T19:45:46.761Z,29.02
2022-10-13T19:48:49.865Z,30.50
2022-10-13T19:51:53.998Z,33.15
2022-10-13T19:54:56.235Z,36.63
2022-10-13T19:57:58.172Z,42.40
2022-10-13T20:01:04.329Z,38.30
2022-10-13T20:04:07.085Z,42.60
2022-10-13T20:07:10.463Z,43.65
2022-10-13T20:10:12.413Z,48.43
2022-10-13T20:13:14.486Z,46.73
2022-10-13T20:16:17.799Z,45.50
2022-10-13T20:19:19.898Z,42.75
2022-10-13T20:22:22.998Z,35.10
2022-10-13T20:25:25.252Z,40.20
2022-10-13T20:28:28.084Z,38.75
2022-10-13T20:31:30.116Z,39.88
2022-10-13T20:34:32.093Z,44.60
2022-10-13T20:37:34.221Z,43.05
2022-10-13T20:40:36.147Z,42.42
2022-10-13T20:43:38.128Z,43.05
2022-10-13T20:46:40.108Z,45.50
2022-10-13T20:49:42.038Z,40.50
2022-10-13T20:52:44.056Z,38.72
2022-10-13T20:55:54.828Z,40.67
2022-10-13T20:58:57.216Z,42.33
2022-10-13T21:01:59.206Z,44.17
2022-10-13T21:05:01.170Z,48.67
2022-10-13T21:08:03.128Z,50.65
2022-10-13T21:11:06.558Z,56.10
2022-10-13T21:14:09.769Z,51.23
2022-10-13T21:17:11.783Z,55.38
2022-10-13T21:20:13.739Z,50.20
2022-10-13T21:23:15.713Z,54.37
2022-10-13T21:26:21.688Z,50.40
2022-10-13T21:29:24.287Z,52.25
2022-10-13T21:32:26.290Z,47.00
2022-10-13T21:35:28.232Z,45.83
2022-10-13T21:38:30.340Z,47.45
2022-10-13T21:41:32.348Z,45.25
2022-10-13T21:44:34.276Z,39.70
2022-10-13T21:47:39.947Z,38.70
2022-10-13T21:50:42.065Z,40.28
2022-10-13T21:53:44.278Z,42.77
2022-10-13T21:56:46.366Z,40.10
2022-10-13T21:59:48.314Z,43.88
2022-10-13T22:02:50.275Z,41.25
2022-10-13T22:05:55.467Z,41.63
2022-10-13T22:08:58.153Z,38.95
2022-10-13T22:12:00.149Z,39.10
2022-10-13T22:15:02.172Z,37.80
2022-10-13T22:18:04.153Z,37.42
2022-10-13T22:21:08.217Z,38.65
2022-10-13T22:24:15.146Z,37.50
2022-10-13T22:27:17.089Z,38.00
2022-10-13T22:30:19.004Z,37.08
2022-10-13T22:33:21.051Z,38.75
2022-10-13T22:36:28.796Z,36.53
2022-10-13T22:39:30.782Z,34.00
2022-10-13T22:42:43.203Z,35.28
2022-10-13T22:45:51.872Z,33.40
2022-10-13T22:48:53.933Z,35.60
2022-10-13T22:51:55.836Z,33.53
2022-10-13T22:54:57.795Z,32.95
2022-10-13T22:57:59.776Z,32.05
2022-10-13T23:01:09.292Z,32.92
2022-10-13T23:04:11.263Z,31.55
2022-10-13T23:07:13.208Z,30.85
2022-10-13T23:10:15.244Z,32.20
2022-10-13T23:13:17.426Z,32.30
2022-10-13T23:16:24.975Z,31.52
2022-10-13T23:19:26.990Z,32.75
2022-10-13T23:22:29.207Z,29.73
2022-10-13T23:25:31.391Z,30.40
2022-10-13T23:28:33.881Z,30.10
2022-10-13T23:31:36.106Z,31.37
2022-10-13T23:34:38.034Z,29.95
2022-10-13T23:37:39.957Z,30.95
2022-10-13T23:40:41.905Z,32.85
2022-10-13T23:43:43.963Z,32.23
2022-10-13T23:46:45.908Z,32.95
2022-10-13T23:49:51.459Z,32.50
2022-10-13T23:52:55.248Z,32.07
2022-10-13T23:55:57.179Z,29.52
2022-10-13T23:59:03.355Z,32.58
